Terminal Aerodrome Forecast
Issued by NWS

Home | Current Version | Previous Version | Text Only | Print | Product List | Glossary On
Versions: 1 2 3 4 5 6 7 8 9 10 11 12 13 14 15 16 17 18 19 20 21 22 23 24
000
FTUS45 KGJT 181120
TAFGUC
TAF
KGUC 181120Z 1812/1912 00000KT P6SM SKC
     FM181800 27010G18KT P6SM VCSH FEW035 SCT100
     FM181900 27012G20KT P6SM VCTS SCT045CB BKN100
      TEMPO 1819/1823 -TSRA
     FM182300 28013KT P6SM VCSH SCT050 BKN090
     FM190000 27010KT P6SM SCT045 BKN090=

USA.gov is the U.S. government's official web portal to all federal, state and local government web resources and services.